Pesotum, IL (61863)

7:55 AM CST on February 01, 2015 (GMT -0600)
KILVILLA4 | Change Station
CLOSE
Current Station
Personal Weather Station
Location: Villa Grove, IL
Elevation: 666 ft
Nearby Weather Stations
Active Advisory: Winter Storm Warning

Elev 666 ft 39.91 °N, 88.14 °W | Updated 6 minutes ago

Snow
Snow
32.0 °F
Feels Like 26 °F
N
6.0
Wind Variable Wind from ESE
Gusts 14.0 mph

Today
High -- | Low -- °F
--% Chance of Precip.
Yesterday
High -- | Low -- °F
Precip. -- in
7:01 AM 5:12 PM
Waxing Gibbous, 95% visible
Pressure 29.84 in
Visibility 0.5 miles
Clouds Mostly Cloudy 400 ft
Mostly Cloudy 1400 ft
Overcast 2200 ft
Windchill 26 °F
Dew Point 31 °F
Humidity 96%
Rainfall 0.02 in
Snow Depth Not available.
UV 0 out of 12
Pollen .10 out of 12
Air Quality Not available.
Flu Activity Not available.
SPECI KCMI 011332Z 11017KT 1/2SM R32R/4000V5500FT SN FG BKN004 BKN014 OVC022 00/M01 A2984 RMK AO2 TWR VIS 1 1/2 P0001 T00001006

More Conditions Fewer Conditions

Pressure 29.84 in
Visibility 0.5 miles
Clouds Mostly Cloudy 400 ft
Mostly Cloudy 1400 ft
Overcast 2200 ft
Windchill 26 °F
Dew Point 31 °F
Humidity 96%
Rainfall 0.02 in
Snow Depth Not available.
UV 0 out of 12
Pollen .10 out of 12
Air Quality Not available.
Flu Activity Not available.
SPECI KCMI 011332Z 11017KT 1/2SM R32R/4000V5500FT SN FG BKN004 BKN014 OVC022 00/M01 A2984 RMK AO2 TWR VIS 1 1/2 P0001 T00001006

More Conditions Fewer Conditions

10-Day Weather Forecast

Almanac

Astronomy

Feb. 01, 2015 Rise Set
Actual Time
Civil Twilight
Nautical Twilight
Astronomical Twilight
Moon
Length of Visible Light
Length of Day
Tomorrow will be .
, % of the Moon is Illuminated

Today's Extremes

State Highs State Lows

Community

WunderPhotos

Upload Photos

1,792,363 photos uploaded!

WunderBlogs® & News

Nearby

Air Quality

  Air Quality AQ Index Pollutant
Not available.

Snow Depth

Station Depth Elevation

Earthquake Activity

City Distance Mag. Time & Date
Minimum magnitude displayed is 2.5.

Coastal Water Temperatures

Place Temperature

Nearby Weather Stations